createdAt,value
2018-11-01T00:02:33.968Z,82.62
2018-11-01T00:05:17.573Z,82.79
2018-11-01T00:08:00.951Z,82.53
2018-11-01T00:10:44.803Z,81.94
2018-11-01T00:13:28.260Z,81.43
2018-11-01T00:16:11.120Z,80.54
2018-11-01T00:18:53.460Z,79.66
2018-11-01T00:21:37.486Z,78.54
2018-11-01T00:24:20.123Z,76.25
2018-11-01T00:27:03.154Z,75.87
2018-11-01T00:29:45.849Z,75.25
2018-11-01T00:32:30.039Z,76.35
2018-11-01T00:35:13.186Z,75.21
2018-11-01T00:37:57.219Z,75.27
2018-11-01T00:40:41.254Z,76.49
2018-11-01T00:43:24.475Z,76.10
2018-11-01T00:46:07.404Z,75.96
2018-11-01T00:48:50.943Z,75.81
2018-11-01T00:51:35.059Z,74.91
2018-11-01T00:54:17.734Z,76.35
2018-11-01T00:57:00.419Z,74.08
2018-11-01T00:59:43.538Z,75.82
2018-11-01T01:02:26.654Z,74.38
2018-11-01T01:05:10.705Z,74.48
2018-11-01T01:07:53.417Z,74.74
2018-11-01T01:10:35.399Z,73.96
2018-11-01T01:13:18.100Z,75.14
2018-11-01T01:16:00.564Z,75.84
2018-11-01T01:18:43.248Z,75.78
2018-11-01T01:21:26.533Z,76.42
2018-11-01T01:24:09.050Z,76.05
2018-11-01T01:26:52.184Z,76.41
2018-11-01T01:29:34.082Z,79.52
2018-11-01T01:32:16.846Z,77.09
2018-11-01T01:35:00.366Z,77.45
2018-11-01T01:37:46.031Z,77.45
2018-11-01T01:40:29.092Z,76.03
2018-11-01T01:43:13.183Z,75.87
2018-11-01T01:45:56.300Z,76.00
2018-11-01T01:48:38.395Z,75.09
2018-11-01T01:51:21.515Z,75.09
2018-11-01T01:54:03.811Z,75.58
2018-11-01T01:56:46.481Z,75.07
2018-11-01T01:59:29.791Z,74.36
2018-11-01T02:02:13.030Z,73.36
2018-11-01T02:04:55.735Z,74.70
2018-11-01T02:07:39.126Z,75.65
2018-11-01T02:10:21.386Z,75.05
2018-11-01T02:13:04.284Z,74.16
2018-11-01T02:15:47.299Z,74.25
2018-11-01T02:18:30.448Z,74.51
2018-11-01T02:21:12.807Z,73.80
2018-11-01T02:23:56.136Z,74.39
2018-11-01T02:26:39.542Z,73.44
2018-11-01T02:29:21.570Z,73.08
2018-11-01T02:32:04.818Z,73.49
2018-11-01T02:34:48.040Z,72.69
2018-11-01T02:37:30.355Z,74.35
2018-11-01T02:40:13.668Z,73.51
2018-11-01T02:42:56.413Z,74.50
2018-11-01T02:45:38.928Z,74.61
2018-11-01T02:48:22.563Z,73.62
2018-11-01T02:51:05.265Z,74.78
2018-11-01T02:53:47.646Z,75.20
2018-11-01T02:56:30.458Z,75.01
2018-11-01T02:59:13.765Z,75.15
2018-11-01T03:01:56.823Z,75.44
2018-11-01T03:04:40.394Z,75.09
2018-11-01T03:07:23.126Z,75.53
2018-11-01T03:10:06.982Z,75.86
2018-11-01T03:12:49.701Z,75.72
2018-11-01T03:15:32.055Z,75.09
2018-11-01T03:18:16.315Z,76.38
2018-11-01T03:20:59.548Z,76.67
2018-11-01T03:23:42.866Z,77.56
2018-11-01T03:26:25.562Z,77.71
2018-11-01T03:29:07.667Z,77.21
2018-11-01T03:31:54.555Z,78.47
2018-11-01T03:34:36.956Z,78.36
2018-11-01T03:37:19.954Z,78.20
2018-11-01T03:40:03.027Z,78.58
2018-11-01T03:42:45.916Z,78.11
2018-11-01T03:45:28.262Z,77.85
2018-11-01T03:48:10.595Z,77.80
2018-11-01T03:50:54.067Z,77.63
2018-11-01T03:53:36.717Z,78.35
2018-11-01T03:56:19.592Z,77.95
2018-11-01T03:59:02.199Z,77.20
2018-11-01T04:01:44.668Z,76.87
2018-11-01T04:04:26.864Z,76.37
2018-11-01T04:07:09.853Z,77.05
2018-11-01T04:09:52.283Z,76.34
2018-11-01T04:12:34.894Z,77.09
2018-11-01T04:15:17.667Z,77.12
2018-11-01T04:18:00.238Z,77.77
2018-11-01T04:20:42.670Z,77.57
2018-11-01T04:23:25.727Z,77.78
2018-11-01T04:26:07.933Z,77.96
2018-11-01T04:28:51.000Z,78.54
2018-11-01T04:31:33.447Z,77.80
2018-11-01T04:34:15.755Z,78.27
2018-11-01T04:36:58.624Z,78.01
2018-11-01T04:39:41.412Z,77.83
2018-11-01T04:42:24.025Z,78.14
2018-11-01T04:45:08.589Z,78.80
2018-11-01T04:47:51.884Z,79.07
2018-11-01T04:50:34.658Z,78.65
2018-11-01T04:53:17.986Z,78.76
2018-11-01T04:56:00.488Z,78.86
2018-11-01T04:58:43.729Z,78.56
2018-11-01T05:01:26.786Z,79.99
2018-11-01T05:04:09.016Z,79.90
2018-11-01T05:06:51.554Z,80.16
2018-11-01T05:09:33.746Z,79.66
2018-11-01T05:12:16.806Z,79.76
2018-11-01T05:14:59.518Z,79.75
2018-11-01T05:17:42.156Z,79.68
2018-11-01T05:20:24.574Z,80.15
2018-11-01T05:23:07.294Z,79.75
2018-11-01T05:25:49.807Z,79.49
2018-11-01T05:28:31.808Z,80.43
2018-11-01T05:31:15.427Z,80.46
2018-11-01T05:33:58.539Z,79.41
2018-11-01T05:36:41.519Z,79.75
2018-11-01T05:39:26.059Z,79.91
2018-11-01T05:42:09.197Z,80.56
2018-11-01T05:44:51.679Z,80.47
2018-11-01T05:47:34.283Z,79.79
2018-11-01T05:50:17.018Z,79.41
2018-11-01T05:52:59.395Z,79.91
2018-11-01T05:55:42.187Z,79.73
2018-11-01T05:58:24.983Z,79.71
2018-11-01T06:01:11.686Z,79.40
2018-11-01T06:03:55.529Z,78.87
2018-11-01T06:06:38.511Z,79.60
2018-11-01T06:09:26.992Z,79.97
2018-11-01T06:12:09.771Z,79.88
2018-11-01T06:14:52.072Z,80.13
2018-11-01T06:17:34.987Z,81.17
2018-11-01T06:20:18.203Z,82.08
2018-11-01T06:23:00.835Z,82.29
2018-11-01T06:25:43.734Z,82.90
2018-11-01T06:28:26.908Z,82.83
2018-11-01T06:31:09.975Z,82.64
2018-11-01T06:33:53.368Z,84.32
2018-11-01T06:36:36.274Z,84.87
2018-11-01T06:39:21.121Z,84.58
2018-11-01T06:42:04.243Z,85.99
2018-11-01T06:44:48.219Z,85.59
2018-11-01T06:47:30.792Z,85.59
2018-11-01T06:50:14.146Z,85.68
2018-11-01T06:52:58.282Z,86.99
2018-11-01T06:55:40.971Z,85.41
2018-11-01T06:58:24.912Z,87.33
2018-11-01T07:01:07.581Z,88.03
2018-11-01T07:03:50.399Z,88.12
2018-11-01T07:06:33.726Z,87.13
2018-11-01T07:09:18.072Z,86.58
2018-11-01T07:12:01.299Z,86.61
2018-11-01T07:14:44.603Z,86.67
2018-11-01T07:17:28.110Z,85.55
2018-11-01T07:20:11.916Z,86.08
2018-11-01T07:22:54.579Z,87.79
2018-11-01T07:25:37.765Z,86.87
2018-11-01T07:28:20.708Z,86.69
2018-11-01T07:31:03.836Z,87.37
2018-11-01T07:33:46.779Z,84.95
2018-11-01T07:36:29.374Z,83.52
2018-11-01T07:39:12.515Z,83.98
2018-11-01T07:41:54.954Z,83.99
2018-11-01T07:44:37.434Z,83.07
2018-11-01T07:47:21.006Z,82.61
2018-11-01T07:50:04.839Z,82.32
2018-11-01T07:52:47.448Z,81.59
2018-11-01T07:55:30.335Z,83.95
2018-11-01T07:58:12.787Z,81.44
2018-11-01T08:00:55.651Z,80.61
2018-11-01T08:03:38.843Z,83.85
2018-11-01T08:06:22.334Z,83.92
2018-11-01T08:09:06.381Z,83.92
2018-11-01T08:11:49.486Z,83.16
2018-11-01T08:14:33.940Z,82.09
2018-11-01T08:17:17.216Z,81.92
2018-11-01T08:20:00.088Z,80.16
2018-11-01T08:22:43.450Z,79.66
2018-11-01T08:25:26.336Z,79.36
2018-11-01T08:28:08.789Z,78.78
2018-11-01T08:30:51.671Z,79.02
2018-11-01T08:33:36.640Z,78.15
2018-11-01T08:36:20.296Z,77.25
2018-11-01T08:39:03.994Z,77.85
2018-11-01T08:41:47.555Z,78.33
2018-11-01T08:44:31.156Z,77.86
2018-11-01T08:47:16.687Z,77.75
2018-11-01T08:49:59.523Z,78.30
2018-11-01T08:52:43.361Z,77.98
2018-11-01T08:55:26.338Z,78.03
2018-11-01T08:58:10.189Z,77.76
2018-11-01T09:00:52.921Z,76.74
2018-11-01T09:03:35.719Z,76.64
2018-11-01T09:06:20.491Z,76.45
2018-11-01T09:09:03.990Z,75.32
2018-11-01T09:11:47.303Z,75.27
2018-11-01T09:14:31.989Z,75.69
2018-11-01T09:17:15.955Z,75.56
2018-11-01T09:19:59.410Z,76.61
2018-11-01T09:22:42.763Z,75.92
2018-11-01T09:25:26.075Z,75.81
2018-11-01T09:28:10.263Z,75.75
2018-11-01T09:30:52.733Z,76.46
2018-11-01T09:33:35.900Z,75.93
2018-11-01T09:36:19.080Z,76.88
2018-11-01T09:39:02.003Z,76.37
2018-11-01T09:41:45.084Z,76.65
2018-11-01T09:44:27.644Z,76.30
2018-11-01T09:47:11.507Z,75.73
2018-11-01T09:49:54.467Z,74.61
2018-11-01T09:52:36.576Z,74.06
2018-11-01T09:55:19.966Z,73.97
2018-11-01T09:58:03.510Z,72.23
2018-11-01T10:00:47.163Z,71.50
2018-11-01T10:03:29.927Z,71.46
2018-11-01T10:06:12.500Z,71.92
2018-11-01T10:08:55.339Z,70.63
2018-11-01T10:11:38.240Z,71.57
2018-11-01T10:14:21.656Z,71.05
2018-11-01T10:17:05.367Z,70.04
2018-11-01T10:19:48.119Z,70.57
2018-11-01T10:22:31.324Z,72.26
2018-11-01T10:25:15.461Z,71.67
2018-11-01T10:27:58.432Z,71.89
2018-11-01T10:30:43.051Z,71.82
2018-11-01T10:33:26.154Z,71.59
2018-11-01T10:36:09.646Z,70.99
2018-11-01T10:38:53.002Z,70.56
2018-11-01T10:41:35.776Z,73.24
2018-11-01T10:44:19.049Z,69.83
2018-11-01T10:47:03.339Z,73.54
2018-11-01T10:49:46.245Z,71.31
2018-11-01T10:52:30.011Z,71.10
2018-11-01T10:55:14.164Z,71.23
2018-11-01T10:57:56.558Z,70.96
2018-11-01T11:00:46.017Z,71.90
2018-11-01T11:03:28.739Z,73.55
2018-11-01T11:06:12.080Z,72.52
2018-11-01T11:08:55.804Z,73.95
2018-11-01T11:11:38.152Z,73.42
2018-11-01T11:14:22.777Z,74.58
2018-11-01T11:17:06.108Z,74.97
2018-11-01T11:19:49.455Z,74.63
2018-11-01T11:22:32.466Z,75.28
2018-11-01T11:25:15.135Z,75.60
2018-11-01T11:27:59.062Z,74.96
2018-11-01T11:30:41.373Z,76.37
2018-11-01T11:33:24.611Z,75.26
2018-11-01T11:36:07.831Z,76.96
2018-11-01T11:38:50.902Z,74.48
2018-11-01T11:41:33.266Z,73.38
2018-11-01T11:44:15.823Z,75.03
2018-11-01T11:46:58.981Z,77.24
2018-11-01T11:49:42.207Z,74.50
2018-11-01T11:52:25.043Z,74.12
2018-11-01T11:55:09.118Z,71.47
2018-11-01T11:57:53.231Z,71.47
2018-11-01T12:00:35.807Z,70.85
2018-11-01T12:03:18.712Z,72.69
2018-11-01T12:06:05.946Z,71.26
2018-11-01T12:08:48.982Z,71.14
2018-11-01T12:11:32.656Z,70.37
2018-11-01T12:14:15.501Z,71.69
2018-11-01T12:16:58.243Z,71.02
2018-11-01T12:19:41.521Z,73.37
2018-11-01T12:22:25.327Z,74.44
2018-11-01T12:25:09.739Z,74.89
2018-11-01T12:27:53.077Z,75.55
2018-11-01T12:30:36.075Z,76.19
2018-11-01T12:33:19.003Z,75.39
2018-11-01T12:36:01.510Z,76.88
2018-11-01T12:38:43.784Z,76.74
2018-11-01T12:41:26.359Z,77.23
2018-11-01T12:44:10.712Z,78.36
2018-11-01T12:46:54.251Z,79.22
2018-11-01T12:49:39.312Z,79.54
2018-11-01T12:52:21.945Z,79.80
2018-11-01T12:55:04.561Z,79.73
2018-11-01T13:01:16.549Z,77.23
2018-11-01T13:03:59.352Z,76.91
2018-11-01T13:06:42.260Z,77.09
2018-11-01T13:09:26.873Z,76.38
2018-11-01T13:12:10.683Z,76.99
2018-11-01T13:14:54.435Z,75.27
2018-11-01T13:17:47.731Z,74.78
2018-11-01T13:20:35.892Z,74.85
2018-11-01T13:23:51.178Z,74.48
2018-11-01T13:26:35.327Z,74.67
2018-11-01T13:29:22.523Z,75.07
2018-11-01T13:32:07.971Z,74.39
2018-11-01T13:34:53.311Z,74.64
2018-11-01T13:37:37.291Z,74.26
2018-11-01T13:40:20.495Z,75.28
2018-11-01T13:43:07.205Z,73.41
2018-11-01T13:45:52.874Z,74.74
2018-11-01T13:51:29.936Z,75.53
2018-11-01T13:54:13.409Z,77.21
2018-11-01T13:56:56.451Z,78.04
2018-11-01T13:59:39.935Z,76.85
2018-11-01T14:02:23.252Z,75.55
2018-11-01T14:05:10.980Z,76.61
2018-11-01T14:07:54.412Z,76.60
2018-11-01T14:10:38.354Z,76.84
2018-11-01T14:13:23.781Z,78.75
2018-11-01T14:16:08.371Z,80.31
2018-11-01T14:18:53.168Z,80.36
2018-11-01T14:21:36.306Z,79.42
2018-11-01T14:24:18.653Z,80.75
2018-11-01T14:27:01.694Z,81.31
2018-11-01T14:29:46.239Z,82.81
2018-11-01T14:32:28.923Z,82.57
2018-11-01T14:35:12.388Z,82.58
2018-11-01T14:37:56.056Z,85.25
2018-11-01T14:40:38.748Z,85.66
2018-11-01T14:43:21.325Z,85.28
2018-11-01T14:46:04.917Z,86.28
2018-11-01T14:48:47.644Z,86.22
2018-11-01T14:51:31.558Z,88.72
2018-11-01T14:54:26.824Z,88.24
2018-11-01T14:57:11.418Z,89.27
2018-11-01T14:59:54.435Z,89.97
2018-11-01T15:02:38.140Z,90.34
2018-11-01T15:05:22.651Z,90.49
2018-11-01T15:08:05.478Z,91.00
2018-11-01T15:10:48.592Z,89.61
2018-11-01T15:13:32.126Z,89.87
2018-11-01T15:16:16.180Z,90.69
2018-11-01T15:19:00.468Z,91.92
2018-11-01T15:21:52.263Z,91.47
2018-11-01T15:24:36.894Z,91.73
2018-11-01T15:27:25.257Z,91.46
2018-11-01T15:30:11.841Z,89.84
2018-11-01T15:32:54.971Z,90.24
2018-11-01T15:35:39.006Z,90.32
2018-11-01T15:38:22.383Z,91.51
2018-11-01T15:41:12.915Z,92.32
2018-11-01T15:43:56.566Z,92.77
2018-11-01T15:46:41.500Z,92.55
2018-11-01T15:49:25.957Z,93.00
2018-11-01T15:52:13.144Z,92.85
2018-11-01T15:55:04.323Z,93.19
2018-11-01T15:57:47.647Z,93.36
2018-11-01T16:00:32.931Z,93.61
2018-11-01T16:03:15.190Z,93.29
2018-11-01T16:05:58.908Z,93.38
2018-11-01T16:08:42.020Z,94.14
2018-11-01T16:11:24.946Z,93.58
2018-11-01T16:14:09.016Z,93.06
2018-11-01T16:16:51.683Z,93.29
2018-11-01T16:19:35.231Z,93.62
2018-11-01T16:22:18.219Z,93.97
2018-11-01T16:25:01.315Z,94.27
2018-11-01T16:27:46.579Z,94.30
2018-11-01T16:30:30.706Z,94.70
2018-11-01T16:33:14.968Z,94.47
2018-11-01T16:36:02.255Z,94.75
2018-11-01T16:38:46.857Z,95.24
2018-11-01T16:41:29.220Z,95.16
2018-11-01T16:44:12.094Z,95.32
2018-11-01T16:46:54.578Z,95.52
2018-11-01T16:49:39.776Z,95.76
2018-11-01T16:52:22.988Z,95.46
2018-11-01T16:55:06.342Z,95.50
2018-11-01T16:57:49.975Z,95.62
2018-11-01T17:00:35.181Z,95.40
2018-11-01T17:03:18.998Z,95.57
2018-11-01T17:06:02.988Z,95.59
2018-11-01T17:08:46.111Z,95.37
2018-11-01T17:11:29.046Z,94.97
2018-11-01T17:14:12.316Z,94.58
2018-11-01T17:16:55.170Z,94.21
2018-11-01T17:19:39.267Z,94.34
2018-11-01T17:22:21.565Z,93.95
2018-11-01T17:25:04.016Z,94.36
2018-11-01T17:27:48.029Z,94.39
2018-11-01T17:30:32.801Z,94.30
2018-11-01T17:33:15.228Z,94.38
2018-11-01T17:35:58.722Z,94.26
2018-11-01T17:38:43.046Z,94.49
2018-11-01T17:41:26.794Z,94.35
2018-11-01T17:44:10.156Z,94.25
2018-11-01T17:46:53.311Z,94.56
2018-11-01T17:49:36.274Z,94.50
2018-11-01T17:52:19.620Z,95.22
2018-11-01T17:55:02.660Z,94.78
2018-11-01T17:57:45.503Z,94.87
2018-11-01T18:00:29.897Z,94.65
2018-11-01T18:03:12.856Z,94.20
2018-11-01T18:05:55.763Z,94.67
2018-11-01T18:08:38.141Z,94.64
2018-11-01T18:11:21.026Z,94.47
2018-11-01T18:14:03.651Z,94.76
2018-11-01T18:16:46.304Z,95.13
2018-11-01T18:19:29.138Z,95.63
2018-11-01T18:22:11.918Z,95.94
2018-11-01T18:24:54.736Z,95.56
2018-11-01T18:27:39.179Z,95.78
2018-11-01T18:30:22.721Z,95.59
2018-11-01T18:33:08.981Z,95.44
2018-11-01T18:35:52.008Z,95.51
2018-11-01T18:38:35.264Z,95.26
2018-11-01T18:41:21.766Z,95.41
2018-11-01T18:44:09.742Z,95.10
2018-11-01T18:46:53.884Z,94.96
2018-11-01T18:49:39.064Z,94.62
2018-11-01T18:52:25.131Z,94.11
2018-11-01T18:55:10.577Z,94.34
2018-11-01T18:57:54.233Z,94.21
2018-11-01T19:00:37.895Z,93.92
2018-11-01T19:03:26.582Z,93.56
2018-11-01T19:06:09.956Z,93.07
2018-11-01T19:08:57.595Z,92.91
2018-11-01T19:11:41.120Z,93.51
2018-11-01T19:14:25.567Z,92.34
2018-11-01T19:17:11.769Z,92.12
2018-11-01T19:19:55.632Z,92.40
2018-11-01T19:22:41.607Z,91.77
2018-11-01T19:25:27.620Z,92.49
2018-11-01T19:28:13.897Z,93.39
2018-11-01T19:31:00.231Z,93.04
2018-11-01T19:33:44.097Z,92.56
2018-11-01T19:36:29.073Z,91.83
2018-11-01T19:39:17.146Z,91.88
2018-11-01T19:42:00.600Z,91.89
2018-11-01T19:44:43.367Z,92.52
2018-11-01T19:47:25.986Z,92.75
2018-11-01T19:50:13.479Z,91.21
2018-11-01T19:52:56.835Z,92.03
2018-11-01T19:55:39.777Z,92.13
2018-11-01T19:58:23.879Z,91.31
2018-11-01T20:01:06.704Z,91.54
2018-11-01T20:03:50.542Z,91.46
2018-11-01T20:06:34.858Z,91.31
2018-11-01T20:09:17.507Z,92.19
2018-11-01T20:12:02.169Z,90.96
2018-11-01T20:14:45.139Z,91.55
2018-11-01T20:17:28.122Z,92.00
2018-11-01T20:20:14.978Z,92.49
2018-11-01T20:22:57.144Z,93.13
2018-11-01T20:25:41.293Z,91.92
2018-11-01T20:28:25.337Z,92.30
2018-11-01T20:31:09.028Z,91.96
2018-11-01T20:33:51.587Z,91.54
2018-11-01T20:36:36.043Z,91.68
2018-11-01T20:39:19.983Z,91.11
2018-11-01T20:42:02.183Z,91.72
2018-11-01T20:44:48.308Z,90.33
2018-11-01T20:47:30.658Z,90.24
2018-11-01T20:50:14.068Z,90.43
2018-11-01T20:52:57.010Z,90.09
2018-11-01T20:55:40.684Z,89.25
2018-11-01T20:58:23.034Z,90.52
2018-11-01T21:01:05.927Z,90.73
2018-11-01T21:03:48.833Z,90.52
2018-11-01T21:06:34.018Z,89.65
2018-11-01T21:09:17.014Z,89.78
2018-11-01T21:12:01.369Z,89.37
2018-11-01T21:14:44.240Z,89.66
2018-11-01T21:17:27.346Z,88.42
2018-11-01T21:20:09.892Z,88.18
2018-11-01T21:22:53.952Z,88.45
2018-11-01T21:25:37.826Z,89.08
2018-11-01T21:28:21.423Z,88.58
2018-11-01T21:31:04.237Z,88.47
2018-11-01T21:33:47.813Z,87.66
2018-11-01T21:36:30.900Z,88.98
2018-11-01T21:39:15.265Z,87.58
2018-11-01T21:41:58.681Z,88.86
2018-11-01T21:44:42.976Z,87.26
2018-11-01T21:47:26.379Z,88.59
2018-11-01T21:50:10.663Z,88.67
2018-11-01T21:52:53.404Z,88.79
2018-11-01T21:55:36.814Z,90.00
2018-11-01T21:58:19.625Z,89.38
2018-11-01T22:01:03.863Z,89.39
2018-11-01T22:03:46.323Z,89.31
2018-11-01T22:06:29.111Z,89.17
2018-11-01T22:09:11.609Z,89.58
2018-11-01T22:11:55.583Z,89.77
2018-11-01T22:14:39.471Z,90.23
2018-11-01T22:17:24.464Z,89.62
2018-11-01T22:20:08.367Z,89.17
2018-11-01T22:22:51.871Z,89.01
2018-11-01T22:25:35.572Z,89.03
2018-11-01T22:28:19.780Z,89.20
2018-11-01T22:31:02.241Z,89.46
2018-11-01T22:33:44.823Z,89.14
2018-11-01T22:36:28.179Z,89.48
2018-11-01T22:39:12.728Z,88.53
2018-11-01T22:41:55.695Z,88.81
2018-11-01T22:44:40.141Z,88.48
2018-11-01T22:47:23.330Z,87.76
2018-11-01T22:50:07.816Z,88.33
2018-11-01T22:52:51.078Z,88.48
2018-11-01T22:55:34.243Z,88.69
2018-11-01T22:58:16.914Z,88.06
2018-11-01T23:00:59.367Z,87.33
2018-11-01T23:03:42.747Z,87.94
2018-11-01T23:06:26.035Z,87.53
2018-11-01T23:09:10.699Z,87.18
2018-11-01T23:12:02.107Z,87.85
2018-11-01T23:14:44.971Z,87.34
2018-11-01T23:17:28.558Z,87.54
2018-11-01T23:20:14.749Z,87.58
2018-11-01T23:22:57.719Z,87.68
2018-11-01T23:25:40.011Z,87.59
2018-11-01T23:28:22.604Z,87.43
2018-11-01T23:31:04.855Z,88.61
2018-11-01T23:33:48.423Z,88.16
2018-11-01T23:36:36.185Z,87.51
2018-11-01T23:43:08.544Z,87.29
2018-11-01T23:45:58.109Z,87.49
2018-11-01T23:48:40.840Z,87.25
2018-11-01T23:51:23.742Z,87.32
2018-11-01T23:54:06.678Z,87.08
2018-11-01T23:56:50.232Z,87.27
2018-11-01T23:59:35.069Z,87.69
